Time;durP1;ratioP1;P1;durP2;ratioP2;P2;SDS_P1;SDS_P2;PMS_P1;PMS_P2;Temp;Humidity;BMP_temperature;BMP_pressure;BME280_temperature;BME280_humidity;BME280_pressure;Samples;Min_cycle;Max_cycle;Signal;HPM_P1;HPM_P2
2021/09/21 04:52:41;;;;;;;;;;;;;;;;;;;;;
2021/09/21 05:13:18;;;;;;;;;;;;;;;;;;;;;
2021/09/21 05:17:01;;;;;;;;;;;;;;;;;;;;;
2021/09/21 05:23:30;;;;;;;;;45.25;36.50;;;;;14.88;63.75;102375.06;6088503;23;44839;-91
2021/09/21 05:26:57;;;;;;;;;;;;;;;;;;;;;
2021/09/21 05:33:10;;;;;;;;;;;;;;;;;;;;;
2021/09/21 05:39:20;;;;;;;;;;;;;;;;;;;;;
2021/09/21 05:45:13;;;;;;;;;42.50;34.25;;;;;14.65;63.57;102380.63;6079568;23;45300;-95
2021/09/21 05:51:47;;;;;;;;;;;;;;;;;;;;;
2021/09/21 05:54:51;;;;;;;;;;;;;;;;;;;;;
2021/09/21 05:57:17;;;;;;;;;36.75;33.25;;;;;14.62;63.38;102401.69;5982803;23;72670;-89
2021/09/21 05:59:42;;;;;;;;;37.00;33.25;;;;;14.75;63.85;102431.16;5983092;23;45408;-82
2021/09/21 06:02:07;;;;;;;;;42.75;33.50;;;;;14.74;63.73;102426.72;5977860;23;45279;-83
2021/09/21 06:04:34;;;;;;;;;36.00;31.75;;;;;14.73;62.58;102419.63;5977055;23;46431;-82
2021/09/21 06:07:00;;;;;;;;;40.75;34.25;;;;;14.74;64.08;102432.03;5977849;23;45480;-83
2021/09/21 06:09:25;;;;;;;;;37.00;32.00;;;;;14.69;63.83;102430.16;5977633;23;45937;-83
2021/09/21 06:11:51;;;;;;;;;44.50;33.75;;;;;14.74;62.61;102429.38;5978185;23;45322;-82
2021/09/21 06:14:16;;;;;;;;;33.25;30.75;;;;;14.74;63.65;102434.66;5978466;23;46253;-83
2021/09/21 06:16:41;;;;;;;;;38.25;32.25;;;;;14.74;64.13;102432.03;6016296;23;45325;-82
2021/09/21 06:19:07;;;;;;;;;39.50;33.00;;;;;14.76;63.97;102441.81;6035235;23;45405;-83
2021/09/21 06:21:32;;;;;;;;;38.25;33.75;;;;;14.78;63.81;102445.41;6034130;23;45432;-81
2021/09/21 06:23:58;;;;;;;;;34.50;31.50;;;;;14.74;63.76;102439.97;6034704;23;46344;-83
2021/09/21 06:26:24;;;;;;;;;30.00;28.75;;;;;14.80;63.77;102453.38;6035152;23;45295;-81
2021/09/21 06:28:49;;;;;;;;;37.75;30.00;;;;;14.81;63.98;102445.47;6110974;23;45271;-88
2021/09/21 06:31:15;;;;;;;;;31.50;30.25;;;;;14.77;63.85;102438.28;6238749;22;45171;-90
2021/09/21 06:33:40;;;;;;;;;36.50;30.75;;;;;14.85;62.83;102458.84;6278228;22;45222;-88
2021/09/21 06:36:06;;;;;;;;;43.00;31.75;;;;;14.85;63.02;102457.06;6277911;22;45181;-89
2021/09/21 06:38:34;;;;;;;;;31.75;28.25;;;;;14.76;62.66;102455.03;6250582;22;45239;-90
2021/09/21 06:41:01;;;;;;;;;35.25;31.25;;;;;14.79;63.01;102455.13;6279611;22;45275;-90
2021/09/21 06:43:27;;;;;;;;;31.50;27.75;;;;;14.85;63.24;102462.34;6279879;22;45421;-89
2021/09/21 06:45:55;;;;;;;;;30.50;29.00;;;;;14.83;62.74;102458.72;6280426;22;45236;-87
2021/09/21 06:48:21;;;;;;;;;29.67;26.33;;;;;14.90;62.77;102487.22;6277741;22;45318;-89
2021/09/21 06:50:46;;;;;;;;;28.67;26.33;;;;;14.95;62.65;102483.81;6280182;22;45086;-88
2021/09/21 06:53:12;;;;;;;;;33.75;28.50;;;;;14.87;62.01;102476.53;6252196;22;47015;-89
2021/09/21 06:55:37;;;;;;;;;36.75;29.50;;;;;14.89;61.69;102479.25;6282164;22;45342;-89
2021/09/21 06:58:03;;;;;;;;;29.33;26.00;;;;;14.95;61.97;102490.00;6283823;22;45201;-88
2021/09/21 07:00:28;;;;;;;;;27.33;27.33;;;;;14.90;61.56;102495.16;6284165;22;45457;-89
2021/09/21 07:02:54;;;;;;;;;28.67;25.33;;;;;14.85;61.61;102472.06;6277887;22;46006;-87
2021/09/21 07:05:21;;;;;;;;;23.33;23.33;;;;;14.95;62.65;102505.91;6279322;22;45259;-88
2021/09/21 07:07:48;;;;;;;;;26.67;24.33;;;;;14.95;60.88;102495.31;6280261;22;45290;-89
2021/09/21 07:10:15;;;;;;;;;22.67;22.67;;;;;14.95;60.84;102500.59;6279424;22;45211;-86
2021/09/21 07:12:41;;;;;;;;;26.67;23.00;;;;;14.84;60.78;102480.84;6279632;22;46103;-89
2021/09/21 07:15:08;;;;;;;;;24.33;20.67;;;;;14.97;60.54;102505.94;6251929;22;45489;-89
2021/09/21 07:17:34;;;;;;;;;26.67;23.00;;;;;14.97;60.36;102514.78;6279469;22;45192;-87
2021/09/21 07:20:00;;;;;;;;;26.33;24.33;;;;;14.97;61.00;102527.13;6280861;22;45296;-89
2021/09/21 07:22:26;;;;;;;;;27.67;24.33;;;;;14.89;60.20;102522.47;6279230;22;45384;-90
2021/09/21 07:24:51;;;;;;;;;25.67;24.00;;;;;14.89;60.81;102511.03;6279126;22;45216;-89
2021/09/21 07:27:17;;;;;;;;;27.00;25.33;;;;;14.99;59.22;102530.69;6279710;22;45247;-89
2021/09/21 07:29:43;;;;;;;;;24.33;22.33;;;;;14.96;58.62;102530.59;6252205;22;45586;-89
2021/09/21 07:32:08;;;;;;;;;19.67;19.67;;;;;14.93;59.82;102528.78;6277875;22;46920;-87
2021/09/21 07:34:34;;;;;;;;;17.67;17.00;;;;;14.81;60.20;102505.44;6281378;22;45185;-87
2021/09/21 07:37:00;;;;;;;;;21.00;18.33;;;;;14.93;59.69;102534.97;6280208;22;45548;-90
2021/09/21 07:39:25;;;;;;;;;29.33;24.67;;;;;14.91;61.03;102522.56;6279978;22;45295;-90
2021/09/21 07:41:51;;;;;;;;;25.00;22.33;;;;;14.98;60.18;102537.75;6251295;22;46990;-89
2021/09/21 07:44:17;;;;;;;;;26.00;24.00;;;;;15.07;60.21;102547.72;6278147;22;45203;-89
2021/09/21 07:46:42;;;;;;;;;21.00;20.00;;;;;15.04;60.47;102537.91;6279594;22;45134;-89
2021/09/21 07:49:08;;;;;;;;;22.33;18.67;;;;;15.11;60.13;102541.63;6251199;22;45254;-87
2021/09/21 07:51:33;;;;;;;;;22.67;20.00;;;;;15.11;60.18;102536.34;6252086;22;48117;-90
2021/09/21 07:53:59;;;;;;;;;20.00;17.33;;;;;15.18;60.32;102544.44;6278968;22;45168;-90
2021/09/21 07:56:24;;;;;;;;;22.67;18.00;;;;;15.20;58.36;102548.03;6278598;22;45312;-87
2021/09/21 07:58:50;;;;;;;;;15.00;15.00;;;;;15.19;59.45;102539.19;6279493;22;45396;-90
2021/09/21 08:01:16;;;;;;;;;20.00;16.00;;;;;15.21;59.47;102539.25;6281423;22;45916;-89
2021/09/21 08:03:42;;;;;;;;;19.67;17.67;;;;;15.20;58.44;102535.69;6283833;22;45359;-88
2021/09/21 08:06:08;;;;;;;;;18.00;16.67;;;;;15.17;59.01;102538.25;6282734;22;45479;-88
2021/09/21 08:08:34;;;;;;;;;16.00;13.33;;;;;15.28;59.01;102558.00;6283061;22;45169;-89
2021/09/21 08:11:02;;;;;;;;;13.67;13.67;;;;;15.23;57.95;102535.75;6278808;22;45912;-89
2021/09/21 08:13:30;;;;;;;;;19.00;17.00;;;;;15.23;57.60;102542.84;6254579;22;45199;-88
2021/09/21 08:15:55;;;;;;;;;17.00;14.00;;;;;15.28;58.68;102555.34;6258223;22;45314;-88
2021/09/21 08:18:21;;;;;;;;;16.00;14.00;;;;;15.26;57.82;102538.50;6283578;22;45401;-89
2021/09/21 08:20:49;;;;;;;;;13.67;12.67;;;;;15.30;58.22;102550.09;6280682;22;45491;-87
2021/09/21 08:23:15;;;;;;;;;16.33;12.00;;;;;15.30;57.95;102531.53;6278788;22;45180;-89
2021/09/21 08:25:41;;;;;;;;;15.67;15.00;;;;;15.40;58.88;102549.47;6279755;22;45177;-88
2021/09/21 08:28:06;;;;;;;;;17.00;15.00;;;;;15.39;58.10;102555.66;6278912;22;45519;-88
2021/09/21 08:30:32;;;;;;;;;19.00;13.33;;;;;15.54;57.86;102571.91;6250178;22;47116;-88
2021/09/21 08:32:58;;;;;;;;;12.00;11.00;;;;;15.53;57.82;102568.34;6250629;22;45769;-89
2021/09/21 08:35:24;;;;;;;;;15.67;12.33;;;;;15.55;57.72;102563.97;6279140;22;45129;-88
2021/09/21 08:37:49;;;;;;;;;18.00;12.00;;;;;15.54;57.85;102559.56;6251089;22;45545;-89
2021/09/21 08:40:15;;;;;;;;;17.00;14.00;;;;;15.62;58.47;102563.28;6276694;22;47832;-89
2021/09/21 08:42:41;;;;;;;;;14.00;13.00;;;;;15.67;56.64;102571.38;6278685;22;45233;-88
2021/09/21 08:45:07;;;;;;;;;14.33;13.67;;;;;15.56;56.16;102557.84;6250663;22;45239;-89
2021/09/21 08:47:33;;;;;;;;;13.33;13.00;;;;;15.64;56.90;102560.69;6278640;22;45185;-88
2021/09/21 08:49:58;;;;;;;;;13.00;10.00;;;;;15.67;55.91;102566.06;6277923;22;45367;-87
2021/09/21 08:52:24;;;;;;;;;14.67;13.00;;;;;15.74;56.15;102578.59;6279379;22;45300;-90
2021/09/21 08:54:50;;;;;;;;;14.00;12.00;;;;;15.77;56.42;102583.09;6281563;22;45142;-88
2021/09/21 08:57:16;;;;;;;;;13.00;11.67;;;;;15.84;56.78;102590.34;6286582;22;45188;-87
2021/09/21 08:59:44;;;;;;;;;12.67;11.67;;;;;15.85;55.39;102584.19;6258963;22;46828;-87
2021/09/21 09:02:11;;;;;;;;;12.00;10.67;;;;;15.90;55.64;102580.75;6286114;22;45272;-88
2021/09/21 09:04:38;;;;;;;;;10.33;10.33;;;;;15.96;55.34;102589.78;6281092;22;45323;-89
2021/09/21 09:07:05;;;;;;;;;13.33;11.67;;;;;16.00;55.34;102573.91;6282579;22;45312;-89
2021/09/21 09:09:34;;;;;;;;;16.67;12.00;;;;;15.96;55.94;102567.66;6253482;22;47257;-87
2021/09/21 09:12:02;;;;;;;;;14.67;12.33;;;;;16.07;55.23;102571.50;6282208;22;45275;-90
2021/09/21 09:14:31;;;;;;;;;11.33;11.33;;;;;16.15;56.05;102576.06;6280691;22;45310;-87
2021/09/21 09:17:01;;;;;;;;;15.00;11.67;;;;;16.29;55.69;102587.91;6279185;22;45113;-87
2021/09/21 09:19:32;;;;;;;;;12.00;12.00;;;;;16.38;56.19;102589.88;6278658;22;46247;-89
2021/09/21 09:22:15;;;;;;;;;15.00;12.00;;;;;16.43;55.45;102572.28;6276668;22;45300;-88
2021/09/21 09:24:53;;;;;;;;;14.33;13.33;;;;;16.65;55.49;102590.47;6280092;22;45193;-90
2021/09/21 09:27:21;;;;;;;;;12.67;11.00;;;;;16.99;55.35;102569.94;6280262;22;45150;-89
2021/09/21 09:29:55;;;;;;;;;12.00;12.00;;;;;17.68;53.18;102583.63;6279471;22;45334;-89
2021/09/21 09:32:20;;;;;;;;;15.00;14.00;;;;;18.63;48.96;102565.56;6250388;22;45207;-87
2021/09/21 09:34:46;;;;;;;;;13.00;10.67;;;;;19.78;48.45;102586.31;6279755;22;45377;-89
2021/09/21 09:37:11;;;;;;;;;10.00;9.00;;;;;20.76;50.36;102587.84;6252138;22;45602;-87
2021/09/21 09:39:38;;;;;;;;;12.00;12.00;;;;;21.57;45.42;102584.53;6251891;22;47565;-88
2021/09/21 09:42:04;;;;;;;;;15.33;13.67;;;;;22.49;47.74;102592.47;6279025;22;45307;-90
2021/09/21 09:44:31;;;;;;;;;15.33;13.67;;;;;23.18;46.81;102576.06;6282991;22;45192;-89
2021/09/21 09:47:00;;;;;;;;;14.00;12.67;;;;;23.90;42.99;102596.16;6285406;22;45252;-89
2021/09/21 09:49:34;;;;;;;;;16.67;13.00;;;;;24.02;42.66;102570.97;6286125;22;45239;-90
2021/09/21 09:52:07;;;;;;;;;13.33;13.33;;;;;24.17;44.48;102589.63;6282699;22;45439;-88
2021/09/21 09:54:34;;;;;;;;;16.00;14.00;;;;;24.59;43.75;102579.31;6280878;22;45214;-90
2021/09/21 09:57:01;;;;;;;;;16.33;11.67;;;;;25.10;43.80;102591.22;6279916;22;45286;-89
2021/09/21 09:59:28;;;;;;;;;13.33;13.33;;;;;25.52;43.22;102595.06;6279487;22;45334;-89
2021/09/21 10:01:54;;;;;;;;;13.33;12.33;;;;;25.88;42.77;102579.22;6251617;22;45400;-90
2021/09/21 10:04:19;;;;;;;;;13.33;10.33;;;;;26.18;40.83;102565.19;6251832;22;45274;-91
2021/09/21 10:06:45;;;;;;;;;16.67;13.33;;;;;26.78;41.49;102596.38;6278235;22;45196;-91
2021/09/21 10:09:11;;;;;;;;;14.00;11.00;;;;;27.56;39.92;102597.28;6280248;22;45144;-89
2021/09/21 10:11:38;;;;;;;;;12.33;12.33;;;;;28.37;39.10;102571.72;6280422;22;45191;-90
2021/09/21 10:14:06;;;;;;;;;14.67;13.33;;;;;29.30;38.77;102581.56;6289571;22;45101;-92
2021/09/21 10:16:32;;;;;;;;;14.33;12.67;;;;;30.05;35.64;102589.00;6293780;22;45243;-91
2021/09/21 10:19:03;;;;;;;;;16.00;14.33;;;;;30.65;35.20;102586.84;6291907;22;47114;-89
2021/09/21 10:21:39;;;;;;;;;19.33;13.67;;;;;31.28;33.75;102597.00;6289510;22;45137;-90
2021/09/21 10:24:07;;;;;;;;;18.00;15.00;;;;;31.75;32.12;102603.19;6304646;22;44542;-87
2021/09/21 10:26:40;;;;;;;;;19.67;15.00;;;;;31.94;32.92;102593.38;6304506;22;45272;-86
2021/09/21 10:29:06;;;;;;;;;17.00;15.67;;;;;32.30;32.99;102599.94;6278336;22;47346;-86
2021/09/21 10:31:34;;;;;;;;;17.67;15.00;;;;;32.63;31.46;102590.28;6305660;22;44784;-88
2021/09/21 10:34:12;;;;;;;;;15.67;15.67;;;;;33.09;28.15;102591.72;6305189;22;44753;-92
2021/09/21 10:36:48;;;;;;;;;18.33;16.33;;;;;33.58;30.75;102603.81;6306395;22;44824;-91
2021/09/21 10:39:15;;;;;;;;;18.67;16.00;;;;;33.92;30.69;102601.19;6276052;22;47044;-91
2021/09/21 10:41:49;;;;;;;;;21.33;15.00;;;;;34.34;30.33;102606.28;6267596;22;45422;-90
2021/09/21 10:44:15;;;;;;;;;17.33;15.33;;;;;34.61;28.71;102597.50;6291729;22;44667;-92
2021/09/21 10:46:59;;;;;;;;;14.00;13.33;;;;;34.85;29.09;102600.72;6294160;22;44708;-91
2021/09/21 10:49:42;;;;;;;;;18.00;16.33;;;;;35.06;27.96;102584.06;6303018;22;46262;-88
2021/09/21 10:52:14;;;;;;;;;17.00;16.33;;;;;35.56;26.65;102603.00;6303114;22;44993;-87
2021/09/21 10:54:44;;;;;;;;;16.67;14.67;;;;;35.48;27.38;102597.13;6301986;22;44599;-90
2021/09/21 10:57:16;;;;;;;;;12.00;11.00;;;;;35.33;27.01;102604.38;6299799;22;45135;-92
2021/09/21 10:59:52;;;;;;;;;15.00;15.00;;;;;35.68;27.71;102604.13;6257307;22;46860;-90
2021/09/21 11:02:21;;;;;;;;;18.67;17.33;;;;;35.27;26.10;102591.06;6281952;22;45311;-94
2021/09/21 11:04:46;;;;;;;;;14.67;14.00;;;;;35.00;26.36;102590.75;6279463;22;45394;-91
2021/09/21 11:07:15;;;;;;;;;19.33;16.33;;;;;34.91;27.39;102594.03;6280079;22;45299;-93
2021/09/21 11:09:41;;;;;;;;;17.33;17.33;;;;;34.60;26.91;102593.91;6251356;22;48089;-92
2021/09/21 11:12:09;;;;;;;;;19.00;17.00;;;;;34.59;27.37;102593.97;6250990;22;45201;-92
2021/09/21 11:14:36;;;;;;;;;18.67;16.33;;;;;34.28;26.46;102586.56;6250765;22;45329;-93
2021/09/21 11:17:02;;;;;;;;;14.67;14.00;;;;;33.50;27.14;102579.72;6280041;22;45201;-91
2021/09/21 11:19:32;;;;;;;;;16.00;15.33;;;;;32.55;27.07;102582.47;6250738;22;46931;-91
2021/09/21 11:22:04;;;;;;;;;21.00;19.00;;;;;32.45;28.10;102577.44;6251142;22;45331;-91
2021/09/21 11:24:33;;;;;;;;;19.00;18.33;;;;;32.79;27.77;102588.59;6278577;22;45322;-91
2021/09/21 11:27:01;;;;;;;;;21.33;18.33;;;;;32.32;28.08;102584.44;6279351;22;45165;-91
2021/09/21 11:29:27;;;;;;;;;20.67;17.00;;;;;31.77;28.02;102571.41;6278254;22;46246;-92
2021/09/21 11:31:53;;;;;;;;;19.00;17.33;;;;;31.67;28.41;102572.75;6277790;22;45364;-90
2021/09/21 11:34:18;;;;;;;;;22.00;18.00;;;;;31.13;27.86;102571.38;6279207;22;45335;-92
2021/09/21 11:36:49;;;;;;;;;19.67;18.67;;;;;30.59;29.18;102571.66;6279072;22;45401;-90
2021/09/21 11:39:16;;;;;;;;;25.33;22.33;;;;;30.08;29.20;102578.03;6278244;22;46540;-92
2021/09/21 11:41:42;;;;;;;;;21.00;20.33;;;;;29.72;30.15;102584.72;6278484;22;45359;-89
2021/09/21 11:44:07;;;;;;;;;21.00;19.67;;;;;29.10;29.03;102556.06;6250354;22;45919;-90
2021/09/21 11:46:33;;;;;;;;;19.33;18.00;;;;;28.63;30.04;102562.88;6279352;22;45231;-90
2021/09/21 11:48:59;;;;;;;;;22.33;22.33;;;;;28.29;30.76;102574.66;6277361;22;45920;-88
2021/09/21 11:51:25;;;;;;;;;22.67;21.00;;;;;27.83;31.22;102569.63;6278837;22;45134;-89
2021/09/21 11:53:55;;;;;;;;;23.67;21.00;;;;;27.40;32.44;102573.38;6278575;22;45260;-88
2021/09/21 11:56:21;;;;;;;;;25.67;24.00;;;;;26.99;31.70;102567.13;6279122;22;45398;-88
2021/09/21 11:58:46;;;;;;;;;23.33;20.33;;;;;26.49;32.45;102552.91;6280847;22;45336;-87
2021/09/21 12:01:12;;;;;;;;;22.67;22.33;;;;;26.28;33.61;102570.38;6253025;22;45552;-88
2021/09/21 12:03:37;;;;;;;;;20.33;20.33;;;;;25.92;33.40;102555.81;6253195;22;45385;-88
2021/09/21 12:06:05;;;;;;;;;19.00;16.00;;;;;25.54;33.08;102553.75;6282334;22;45318;-89
2021/09/21 12:08:33;;;;;;;;;18.00;18.00;;;;;25.23;33.91;102565.03;6282625;22;46101;-90
2021/09/21 12:11:16;;;;;;;;;18.67;16.00;;;;;25.09;34.84;102568.78;6284562;22;45389;-89
2021/09/21 12:13:47;;;;;;;;;21.33;20.33;;;;;24.92;35.71;102578.88;6285500;22;45168;-90
2021/09/21 12:16:13;;;;;;;;;28.00;24.33;;;;;25.01;36.19;102576.09;6285353;22;45164;-89
2021/09/21 12:18:38;;;;;;;;;17.33;17.33;;;;;25.14;35.86;102574.13;6258961;22;47150;-89
2021/09/21 12:21:16;;;;;;;;;21.67;20.33;;;;;25.01;36.29;102570.72;6292837;22;44740;-88
2021/09/21 12:23:44;;;;;;;;;18.00;16.67;;;;;24.95;36.76;102577.03;6263355;22;44598;-90
2021/09/21 12:26:11;;;;;;;;;18.67;18.67;;;;;24.80;36.72;102567.38;6299998;22;45209;-90
2021/09/21 12:28:40;;;;;;;;;31.67;23.00;;;;;24.63;36.51;102555.06;6301735;22;45238;-87
2021/09/21 12:31:10;;;;;;;;;26.00;23.00;;;;;24.48;37.10;102550.75;6273203;22;44697;-88
2021/09/21 12:33:38;;;;;;;;;23.67;20.67;;;;;24.48;37.52;102574.06;6275758;22;45200;-87
2021/09/21 12:36:04;;;;;;;;;21.33;19.00;;;;;24.39;37.92;102573.25;6275810;22;44756;-87
2021/09/21 12:38:30;;;;;;;;;21.33;19.33;;;;;24.25;37.53;102575.22;6302006;22;45676;-88
2021/09/21 12:41:01;;;;;;;;;25.00;21.00;;;;;24.05;38.38;102569.13;6301604;22;44697;-87
2021/09/21 12:43:40;;;;;;;;;21.67;20.33;;;;;23.75;38.37;102554.22;6277455;22;44743;-88
2021/09/21 12:46:06;;;;;;;;;21.00;20.00;;;;;23.66;38.76;102576.66;6276492;22;45352;-88
2021/09/21 12:48:35;;;;;;;;;22.33;20.00;;;;;23.48;39.38;102571.41;6291684;22;45168;-88
2021/09/21 12:51:04;;;;;;;;;21.67;20.00;;;;;23.50;39.88;102576.78;6279803;22;45304;-90
2021/09/21 12:53:30;;;;;;;;;20.33;19.67;;;;;23.45;40.18;102563.41;6247809;22;45196;-89
2021/09/21 12:56:03;;;;;;;;;21.00;20.00;;;;;23.56;40.14;102575.84;6255630;22;45198;-89
2021/09/21 12:58:36;;;;;;;;;24.00;21.00;;;;;23.46;40.74;102550.84;6285692;22;45256;-89
2021/09/21 13:01:07;;;;;;;;;24.33;20.00;;;;;23.47;41.00;102550.88;6281677;22;45459;-88
2021/09/21 13:03:33;;;;;;;;;25.33;20.33;;;;;23.46;40.86;102554.44;6253337;22;45185;-89
2021/09/21 13:06:00;;;;;;;;;21.00;20.33;;;;;23.46;41.51;102559.81;6257074;22;45126;-89
2021/09/21 13:08:26;;;;;;;;;26.33;22.00;;;;;23.22;41.22;102529.56;6258966;22;47370;-89
2021/09/21 13:10:51;;;;;;;;;24.33;23.00;;;;;23.22;41.28;102545.66;6282674;22;45235;-88
2021/09/21 13:13:17;;;;;;;;;22.00;20.00;;;;;23.14;41.77;102544.78;6283911;22;45262;-88
2021/09/21 13:15:43;;;;;;;;;21.00;19.67;;;;;22.88;42.06;102524.44;6256173;22;45459;-87
2021/09/21 13:18:09;;;;;;;;;28.67;22.67;;;;;22.74;42.67;102520.00;6284239;22;46418;-89
2021/09/21 13:20:36;;;;;;;;;24.00;20.67;;;;;22.66;42.62;102522.75;6255471;22;45813;-89
2021/09/21 13:23:04;;;;;;;;;19.33;18.00;;;;;22.64;43.23;102526.28;6281511;22;45133;-89
2021/09/21 13:25:30;;;;;;;;;21.67;17.67;;;;;22.65;42.83;102523.59;6289653;22;45596;-90
2021/09/21 13:27:57;;;;;;;;;22.33;19.67;;;;;22.81;43.20;102557.50;6291951;22;45251;-88
2021/09/21 13:30:23;;;;;;;;;28.00;23.00;;;;;22.77;43.38;102544.13;6298585;22;45349;-89
2021/09/21 13:32:50;;;;;;;;;24.00;21.67;;;;;22.81;43.49;102554.84;6299514;22;44748;-88
2021/09/21 13:35:19;;;;;;;;;18.33;18.33;;;;;22.74;42.43;102546.81;6273174;22;44863;-89
2021/09/21 13:37:46;;;;;;;;;21.00;19.00;;;;;22.68;42.63;102538.81;6294458;22;45409;-89
2021/09/21 13:40:19;;;;;;;;;24.33;23.33;;;;;22.73;42.90;102541.47;6292080;22;45180;-90
2021/09/21 13:42:51;;;;;;;;;26.00;22.00;;;;;22.60;43.69;102529.88;6293942;22;45216;-89
2021/09/21 13:45:17;;;;;;;;;23.33;21.67;;;;;22.64;43.56;102537.00;6266776;22;45177;-89
2021/09/21 13:47:46;;;;;;;;;24.67;20.67;;;;;22.71;43.12;102552.22;6293000;22;46342;-89
2021/09/21 13:50:13;;;;;;;;;22.33;19.33;;;;;22.60;43.56;102533.47;6285297;22;45248;-89
2021/09/21 13:52:39;;;;;;;;;22.33;20.33;;;;;22.59;43.85;102544.19;6283481;22;45267;-89
2021/09/21 13:55:06;;;;;;;;;21.00;20.00;;;;;22.54;43.80;102550.47;6255997;22;45438;-88
2021/09/21 13:57:32;;;;;;;;;29.67;25.33;;;;;22.50;43.76;102554.06;6258701;22;46555;-88
2021/09/21 13:59:57;;;;;;;;;24.67;20.00;;;;;22.30;43.79;102533.56;6259242;22;45218;-88
2021/09/21 14:02:27;;;;;;;;;23.00;19.33;;;;;22.32;43.36;102545.19;6281572;22;45616;-88
2021/09/21 14:04:53;;;;;;;;;23.00;22.00;;;;;22.23;44.48;102534.47;6291812;22;45263;-89
2021/09/21 14:07:18;;;;;;;;;20.00;19.67;;;;;22.15;44.31;102525.56;6278697;22;47082;-89
2021/09/21 14:09:47;;;;;;;;;22.33;19.00;;;;;22.13;44.24;102530.94;6282190;22;45260;-89
2021/09/21 14:12:13;;;;;;;;;25.33;20.33;;;;;22.09;44.57;102535.44;6281361;22;45185;-91
2021/09/21 14:14:38;;;;;;;;;24.00;21.00;;;;;22.06;44.61;102551.50;6280357;22;45291;-87
2021/09/21 14:17:05;;;;;;;;;22.00;21.00;;;;;21.94;44.87;102538.13;6282519;22;46136;-90
2021/09/21 14:19:31;;;;;;;;;24.67;20.00;;;;;21.97;45.33;102546.16;6259547;22;45276;-88
2021/09/21 14:21:57;;;;;;;;;27.67;26.00;;;;;21.84;45.27;102548.88;6282610;22;45274;-88
2021/09/21 14:24:31;;;;;;;;;23.33;23.00;;;;;21.85;45.21;102547.06;6253914;22;45247;-88
2021/09/21 14:27:01;;;;;;;;;22.00;18.00;;;;;21.81;45.40;102547.91;6280363;22;45996;-89
2021/09/21 14:29:27;;;;;;;;;19.67;19.33;;;;;21.80;44.96;102549.72;6254110;22;45325;-88
2021/09/21 14:31:52;;;;;;;;;23.67;21.00;;;;;21.75;45.20;102551.50;6278056;22;45122;-88
2021/09/21 14:34:18;;;;;;;;;20.33;17.00;;;;;21.76;45.67;102566.69;6292781;22;45097;-86
2021/09/21 14:36:44;;;;;;;;;20.00;19.33;;;;;21.68;45.43;102547.94;6298793;22;45168;-88
2021/09/21 14:39:10;;;;;;;;;19.67;18.67;;;;;21.76;45.60;102558.66;6294632;22;45350;-88
2021/09/21 14:41:36;;;;;;;;;21.33;17.33;;;;;21.75;46.05;102554.19;6287275;22;45311;-87
2021/09/21 14:44:03;;;;;;;;;22.33;20.00;;;;;21.75;45.89;102544.38;6286041;22;45405;-88
2021/09/21 14:46:29;;;;;;;;;23.00;22.00;;;;;21.79;46.19;102553.28;6257087;22;46988;-87
2021/09/21 14:48:55;;;;;;;;;24.00;21.00;;;;;21.83;46.22;102552.41;6282411;22;45436;-88
2021/09/21 14:51:22;;;;;;;;;18.67;18.00;;;;;21.81;46.53;102547.91;6279813;22;45644;-88
2021/09/21 14:53:49;;;;;;;;;20.33;18.33;;;;;21.84;46.36;102551.53;6252160;22;45389;-88
2021/09/21 14:56:15;;;;;;;;;20.33;17.67;;;;;21.74;46.54;102542.56;6281047;22;46505;-88
2021/09/21 14:58:44;;;;;;;;;20.67;19.33;;;;;21.78;46.41;102556.88;6278939;22;45316;-93
2021/09/21 15:01:10;;;;;;;;;19.33;17.67;;;;;21.81;46.44;102545.25;6251793;22;45285;-84
2021/09/21 15:03:35;;;;;;;;;22.33;18.67;;;;;21.77;46.79;102547.03;6277899;22;45109;-82
2021/09/21 15:06:00;;;;;;;;;20.00;18.67;;;;;21.77;46.58;102547.03;6275118;22;45259;-81
2021/09/21 15:08:26;;;;;;;;;19.00;18.00;;;;;21.72;46.69;102543.50;6276699;22;45354;-82
2021/09/21 15:10:51;;;;;;;;;20.33;19.33;;;;;21.69;46.78;102544.38;6277143;22;45140;-82
2021/09/21 15:13:17;;;;;;;;;18.67;18.33;;;;;21.64;46.98;102543.47;6277288;22;45131;-82
2021/09/21 15:15:43;;;;;;;;;23.33;18.67;;;;;21.61;47.12;102552.41;6276362;22;46153;-82
2021/09/21 15:18:08;;;;;;;;;21.67;19.00;;;;;21.52;47.64;102539.03;6276660;22;45280;-82
2021/09/21 15:20:34;;;;;;;;;22.00;19.67;;;;;21.58;47.88;102547.06;6276624;22;45101;-82
2021/09/21 15:22:59;;;;;;;;;22.33;20.00;;;;;21.54;48.34;102547.03;6277528;22;45106;-82
2021/09/21 15:25:25;;;;;;;;;16.00;14.00;;;;;21.52;47.64;102552.41;6276905;22;45362;-82
2021/09/21 15:27:51;;;;;;;;;24.33;19.67;;;;;21.51;47.29;102553.31;6277183;22;45275;-83
2021/09/21 15:30:18;;;;;;;;;22.67;20.00;;;;;21.50;47.91;102563.13;6276973;22;45240;-82
2021/09/21 15:32:43;;;;;;;;;19.00;16.67;;;;;21.49;48.44;102555.97;6277305;22;45546;-82
2021/09/21 15:35:10;;;;;;;;;21.67;20.33;;;;;21.51;48.24;102553.31;6278488;22;46115;-82
2021/09/21 15:37:37;;;;;;;;;17.67;17.67;;;;;21.43;48.13;102541.72;6285574;22;45188;-81
2021/09/21 15:40:05;;;;;;;;;17.67;16.67;;;;;21.43;47.82;102541.72;6290281;22;45187;-82
2021/09/21 15:42:31;;;;;;;;;22.00;20.33;;;;;21.38;47.93;102547.06;6289576;22;44719;-81
2021/09/21 15:44:56;;;;;;;;;20.33;17.00;;;;;21.30;47.83;102549.69;6284212;22;45993;-80
2021/09/21 15:47:24;;;;;;;;;19.33;18.67;;;;;21.23;47.84;102555.94;6278183;22;45392;-82
2021/09/21 15:49:50;;;;;;;;;21.67;18.00;;;;;21.13;47.98;102547.88;6276917;22;45413;-82
2021/09/21 15:52:15;;;;;;;;;20.33;20.00;;;;;21.06;48.46;102551.47;6275784;22;45431;-82
2021/09/21 15:54:40;;;;;;;;;21.00;18.00;;;;;20.98;48.47;102547.88;6276492;22;45380;-82
2021/09/21 15:57:11;;;;;;;;;23.00;21.00;;;;;20.90;48.50;102554.03;6276544;22;45234;-82
2021/09/21 15:59:38;;;;;;;;;21.00;19.67;;;;;20.82;48.51;102548.69;6276835;22;45300;-82
2021/09/21 16:02:04;;;;;;;;;20.67;20.00;;;;;20.74;48.78;102541.53;6276621;22;45364;-82
2021/09/21 16:04:31;;;;;;;;;20.67;20.67;;;;;20.73;48.57;102553.13;6276139;22;46648;-82
2021/09/21 16:06:56;;;;;;;;;21.67;20.33;;;;;20.67;49.20;102562.88;6275418;22;45279;-82
2021/09/21 16:09:22;;;;;;;;;19.33;19.33;;;;;20.60;47.98;102547.72;6276849;22;45348;-82
2021/09/21 16:11:50;;;;;;;;;20.33;19.33;;;;;20.60;49.67;102553.06;6277184;22;45316;-82
2021/09/21 16:14:15;;;;;;;;;22.33;20.33;;;;;20.59;49.21;102553.94;6278815;22;46358;-91
2021/09/21 16:16:40;;;;;;;;;19.67;17.00;;;;;20.60;50.06;102559.28;6283765;22;44827;-88
2021/09/21 16:19:08;;;;;;;;;20.00;19.00;;;;;20.60;48.66;102553.94;6283905;22;45212;-88
2021/09/21 16:21:35;;;;;;;;;23.33;20.67;;;;;20.57;48.26;102561.06;6284784;22;45224;-88
2021/09/21 16:24:01;;;;;;;;;26.00;21.67;;;;;20.48;49.03;102559.22;6254346;22;47009;-89
2021/09/21 16:26:27;;;;;;;;;19.00;18.00;;;;;20.45;49.49;102557.41;6254366;22;45207;-88
2021/09/21 16:28:53;;;;;;;;;24.00;20.00;;;;;20.46;48.95;102563.66;6281269;22;45376;-87
2021/09/21 16:31:20;;;;;;;;;16.67;15.67;;;;;20.38;49.07;102552.94;6292613;22;45089;-88
2021/09/21 16:33:47;;;;;;;;;21.00;19.67;;;;;20.32;49.06;102553.81;6294413;22;45197;-87
2021/09/21 16:36:14;;;;;;;;;23.33;20.00;;;;;20.24;49.05;102551.09;6296702;22;45410;-86
2021/09/21 16:38:41;;;;;;;;;20.33;18.00;;;;;20.27;49.12;102560.00;6288202;22;45256;-87
2021/09/21 16:41:08;;;;;;;;;23.67;20.00;;;;;20.25;49.64;102568.91;6288551;22;45373;-88
2021/09/21 16:43:38;;;;;;;;;22.00;19.00;;;;;20.19;49.45;102559.97;6281290;22;45865;-86
2021/09/21 16:46:05;;;;;;;;;25.33;21.00;;;;;20.14;49.27;102557.25;6281170;22;44733;-90
2021/09/21 16:48:32;;;;;;;;;22.33;19.00;;;;;20.13;49.51;102567.06;6279534;22;44768;-88
2021/09/21 16:50:59;;;;;;;;;20.67;19.33;;;;;20.09;49.64;102567.94;6252114;22;45295;-89